createdAt,value
2023-01-05T00:01:06.950Z,101874.53
2023-01-05T00:03:35.520Z,101874.38
2023-01-05T00:06:04.866Z,101880.06
2023-01-05T00:08:37.140Z,101878.16
2023-01-05T00:11:25.071Z,101872.22
2023-01-05T00:14:11.110Z,101873.50
2023-01-05T00:16:57.371Z,101867.81
2023-01-05T00:19:43.461Z,101870.84
2023-01-05T00:22:31.102Z,101871.88
2023-01-05T00:25:11.224Z,101870.50
2023-01-05T00:27:41.045Z,101871.44
2023-01-05T00:30:10.716Z,101870.19
2023-01-05T00:32:38.294Z,101878.63
2023-01-05T00:35:05.869Z,101876.84
2023-01-05T00:37:35.565Z,101873.59
2023-01-05T00:40:02.850Z,101871.09
2023-01-05T00:42:30.256Z,101872.44
2023-01-05T00:44:57.500Z,101874.50
2023-01-05T00:47:25.076Z,101877.03
2023-01-05T00:49:52.452Z,101874.06
2023-01-05T00:52:19.836Z,101886.94
2023-01-05T00:54:47.187Z,101889.94
2023-01-05T00:57:14.931Z,101885.91
2023-01-05T00:59:42.920Z,101887.16
2023-01-05T01:02:10.375Z,101883.13
2023-01-05T01:04:38.748Z,101890.22
2023-01-05T01:07:06.495Z,101882.81
2023-01-05T01:09:34.328Z,101880.78
2023-01-05T01:12:01.847Z,101877.81
2023-01-05T01:14:29.339Z,101874.94
2023-01-05T01:16:56.970Z,101879.00
2023-01-05T01:19:26.056Z,101871.13
2023-01-05T01:21:54.483Z,101865.25
2023-01-05T01:24:41.784Z,101864.94
2023-01-05T01:27:09.173Z,101866.47
2023-01-05T01:29:36.471Z,101861.44
2023-01-05T01:32:04.153Z,101861.72
2023-01-05T01:34:31.537Z,101873.44
2023-01-05T01:37:00.268Z,101867.09
2023-01-05T01:39:33.374Z,101877.59
2023-01-05T01:42:06.402Z,101868.75
2023-01-05T01:44:53.345Z,101875.84
2023-01-05T01:47:28.930Z,101879.50
2023-01-05T01:49:58.404Z,101875.59
2023-01-05T01:52:27.041Z,101876.16
2023-01-05T01:54:54.751Z,101876.72
2023-01-05T01:57:22.187Z,101884.69
2023-01-05T01:59:49.912Z,101885.06
2023-01-05T02:02:17.911Z,101884.19
2023-01-05T02:04:45.961Z,101884.78
2023-01-05T02:07:15.651Z,101889.72
2023-01-05T02:09:43.854Z,101881.13
2023-01-05T02:12:29.802Z,101892.84
2023-01-05T02:15:10.998Z,101882.34
2023-01-05T02:18:03.091Z,101888.72
2023-01-05T02:20:59.951Z,101888.59
2023-01-05T02:23:46.943Z,101890.25
2023-01-05T02:26:33.612Z,101895.91
2023-01-05T02:29:11.177Z,101898.47
2023-01-05T02:32:25.903Z,101898.91
2023-01-05T02:35:06.739Z,101900.72
2023-01-05T02:37:46.304Z,101901.13
2023-01-05T02:40:20.087Z,101911.44
2023-01-05T02:42:49.432Z,101897.69
2023-01-05T02:45:18.343Z,101910.66
2023-01-05T02:47:46.076Z,101906.34
2023-01-05T02:50:22.232Z,101894.91
2023-01-05T02:53:13.963Z,101898.41
2023-01-05T02:56:06.878Z,101894.63
2023-01-05T02:58:47.573Z,101894.72
2023-01-05T03:01:20.665Z,101892.88
2023-01-05T03:03:56.180Z,101897.28
2023-01-05T03:06:47.276Z,101890.59
2023-01-05T03:09:20.027Z,101906.38
2023-01-05T03:12:13.200Z,101900.25
2023-01-05T03:14:57.702Z,101891.41
2023-01-05T03:17:30.335Z,101892.78
2023-01-05T03:19:58.922Z,101883.78
2023-01-05T03:22:49.961Z,101893.63
2023-01-05T03:25:39.342Z,101899.63
2023-01-05T03:28:40.042Z,101906.59
2023-01-05T03:31:54.643Z,101899.94
2023-01-05T03:35:05.635Z,101891.19
2023-01-05T03:37:45.576Z,101893.44
2023-01-05T03:40:18.447Z,101901.31
2023-01-05T03:42:46.857Z,101894.78
2023-01-05T03:45:15.655Z,101901.94
2023-01-05T03:47:43.318Z,101906.84
2023-01-05T03:50:10.895Z,101904.41
2023-01-05T03:52:38.250Z,101894.28
2023-01-05T03:55:05.908Z,101899.00
2023-01-05T03:57:33.904Z,101908.06
2023-01-05T04:00:01.279Z,101909.22
2023-01-05T04:02:29.887Z,101921.09
2023-01-05T04:04:57.572Z,101910.16
2023-01-05T04:07:25.935Z,101917.84
2023-01-05T04:09:53.913Z,101909.72
2023-01-05T04:12:21.864Z,101914.91
2023-01-05T04:14:51.140Z,101914.66
2023-01-05T04:17:18.585Z,101918.56
2023-01-05T04:19:46.055Z,101920.66
2023-01-05T04:22:14.156Z,101914.31
2023-01-05T04:24:43.467Z,101916.78
2023-01-05T04:27:10.867Z,101914.06
2023-01-05T04:29:39.625Z,101915.00
2023-01-05T04:32:07.071Z,101919.75
2023-01-05T04:34:34.511Z,101920.28
2023-01-05T04:37:01.980Z,101916.28
2023-01-05T04:39:31.382Z,101918.59
2023-01-05T04:41:58.890Z,101918.06
2023-01-05T04:44:26.414Z,101920.56
2023-01-05T04:46:55.810Z,101924.41
2023-01-05T04:49:23.578Z,101921.91
2023-01-05T04:51:52.393Z,101912.91
2023-01-05T04:54:22.266Z,101911.22
2023-01-05T04:56:49.526Z,101906.41
2023-01-05T04:59:17.009Z,101905.19
2023-01-05T05:01:44.936Z,101910.03
2023-01-05T05:04:13.843Z,101897.44
2023-01-05T05:06:41.423Z,101905.16
2023-01-05T05:09:08.865Z,101907.91
2023-01-05T05:11:38.255Z,101904.97
2023-01-05T05:14:05.536Z,101909.69
2023-01-05T05:16:32.851Z,101902.16
2023-01-05T05:19:01.308Z,101904.72
2023-01-05T05:21:28.931Z,101896.09
2023-01-05T05:23:56.544Z,101906.13
2023-01-05T05:26:23.802Z,101902.97
2023-01-05T05:28:52.031Z,101902.09
2023-01-05T05:31:19.503Z,101908.84
2023-01-05T05:33:47.008Z,101913.06
2023-01-05T05:36:15.284Z,101907.19
2023-01-05T05:38:42.500Z,101901.50
2023-01-05T05:41:09.874Z,101909.91
2023-01-05T05:43:37.135Z,101914.28
2023-01-05T05:46:04.637Z,101914.13
2023-01-05T05:48:32.140Z,101915.47
2023-01-05T05:50:59.620Z,101915.91
2023-01-05T05:53:26.957Z,101912.03
2023-01-05T05:55:54.208Z,101920.81
2023-01-05T05:58:21.531Z,101919.75
2023-01-05T06:00:48.824Z,101915.31
2023-01-05T06:03:16.270Z,101925.94
2023-01-05T06:05:44.586Z,101931.47
2023-01-05T06:08:11.945Z,101932.69
2023-01-05T06:10:39.309Z,101942.41
2023-01-05T06:13:06.604Z,101935.63
2023-01-05T06:15:33.861Z,101946.75
2023-01-05T06:18:01.125Z,101941.44
2023-01-05T06:20:28.413Z,101958.25
2023-01-05T06:22:55.732Z,101945.50
2023-01-05T06:25:23.138Z,101946.13
2023-01-05T06:27:50.420Z,101950.94
2023-01-05T06:30:17.777Z,101956.19
2023-01-05T06:32:45.241Z,101947.91
2023-01-05T06:35:12.487Z,101942.41
2023-01-05T06:37:39.778Z,101957.09
2023-01-05T06:40:08.856Z,101951.13
2023-01-05T06:42:36.195Z,101954.44
2023-01-05T06:45:04.790Z,101958.88
2023-01-05T06:47:32.213Z,101965.03
2023-01-05T06:49:59.736Z,101970.38
2023-01-05T06:52:27.025Z,101967.91
2023-01-05T06:54:54.346Z,101968.44
2023-01-05T06:57:21.642Z,101967.31
2023-01-05T06:59:49.025Z,101970.47
2023-01-05T07:02:17.141Z,101969.81
2023-01-05T07:04:44.527Z,101968.16
2023-01-05T07:07:15.692Z,101967.75
2023-01-05T07:09:43.046Z,101965.72
2023-01-05T07:12:10.540Z,101969.78
2023-01-05T07:14:38.327Z,101965.41
2023-01-05T07:17:05.741Z,101973.97
2023-01-05T07:19:33.018Z,101978.97
2023-01-05T07:22:00.341Z,101979.41
2023-01-05T07:24:27.636Z,101975.50
2023-01-05T07:26:54.921Z,101974.38
2023-01-05T07:29:22.204Z,101974.06
2023-01-05T07:31:52.438Z,101971.00
2023-01-05T07:34:21.345Z,101966.59
2023-01-05T07:36:49.643Z,101971.03
2023-01-05T07:39:17.169Z,101974.06
2023-01-05T07:41:44.626Z,101973.56
2023-01-05T07:44:12.054Z,101966.41
2023-01-05T07:46:39.333Z,101974.72
2023-01-05T07:49:06.969Z,101966.53
2023-01-05T07:51:34.336Z,101981.94
2023-01-05T07:54:01.579Z,101988.91
2023-01-05T07:56:28.823Z,101984.03
2023-01-05T07:58:56.326Z,101982.75
2023-01-05T08:01:24.043Z,101979.13
2023-01-05T08:03:51.666Z,101973.31
2023-01-05T08:06:19.892Z,101975.16
2023-01-05T08:08:47.981Z,101977.28
2023-01-05T08:11:17.101Z,101973.13
2023-01-05T08:14:00.010Z,101978.97
2023-01-05T08:16:31.490Z,101983.28
2023-01-05T08:18:59.731Z,101982.88
2023-01-05T08:21:27.063Z,101976.06
2023-01-05T08:23:54.629Z,101979.19
2023-01-05T08:26:23.562Z,101985.69
2023-01-05T08:28:52.478Z,101982.16
2023-01-05T08:31:29.929Z,101986.94
2023-01-05T08:34:00.086Z,101985.25
2023-01-05T08:36:28.108Z,101994.03
2023-01-05T08:38:55.670Z,101986.25
2023-01-05T08:41:22.896Z,101989.34
2023-01-05T08:43:51.993Z,101982.38
2023-01-05T08:46:20.896Z,101990.59
2023-01-05T08:48:52.625Z,101984.97
2023-01-05T08:51:20.238Z,101990.81
2023-01-05T08:53:47.753Z,101988.50
2023-01-05T08:56:15.393Z,101990.34
2023-01-05T08:58:42.944Z,101992.69
2023-01-05T09:01:12.615Z,101995.28
2023-01-05T09:03:40.578Z,101998.16
2023-01-05T09:06:09.587Z,101993.84
2023-01-05T09:08:36.826Z,101995.19
2023-01-05T09:11:11.908Z,101992.13
2023-01-05T09:13:40.039Z,101987.94
2023-01-05T09:16:13.680Z,101989.34
2023-01-05T09:18:41.719Z,101990.09
2023-01-05T09:21:09.721Z,101989.38
2023-01-05T09:23:37.865Z,101987.25
2023-01-05T09:26:06.674Z,101994.19
2023-01-05T09:28:36.452Z,102002.03
2023-01-05T09:31:11.861Z,101996.88
2023-01-05T09:33:40.375Z,102003.94
2023-01-05T09:36:08.300Z,102000.88
2023-01-05T09:38:36.353Z,101993.59
2023-01-05T09:41:21.188Z,102006.69
2023-01-05T09:43:51.621Z,101994.59
2023-01-05T09:46:22.549Z,102000.88
2023-01-05T09:48:55.485Z,101998.59
2023-01-05T09:51:23.208Z,101997.53
2023-01-05T09:53:50.625Z,101998.09
2023-01-05T09:59:26.937Z,102002.31
2023-01-05T10:01:56.621Z,101995.78
2023-01-05T10:04:30.613Z,102007.44
2023-01-05T10:07:07.229Z,102013.06
2023-01-05T10:09:39.326Z,102011.50
2023-01-05T10:12:28.486Z,102016.78
2023-01-05T10:15:16.980Z,102012.91
2023-01-05T10:17:44.851Z,102020.84
2023-01-05T10:20:17.257Z,102024.91
2023-01-05T10:22:44.558Z,102021.19
2023-01-05T10:25:29.916Z,102028.91
2023-01-05T10:28:23.314Z,102023.22
2023-01-05T10:31:01.859Z,102015.88
2023-01-05T10:33:40.571Z,102017.44
2023-01-05T10:37:06.783Z,102019.06
2023-01-05T10:39:34.041Z,102015.38
2023-01-05T10:42:24.748Z,102021.63
2023-01-05T10:44:55.974Z,102017.31
2023-01-05T10:47:25.428Z,102002.63
2023-01-05T10:49:53.365Z,102007.81
2023-01-05T10:52:22.513Z,101998.56
2023-01-05T10:54:54.257Z,102006.31
2023-01-05T10:57:36.597Z,102003.75
2023-01-05T11:00:19.878Z,101996.03
2023-01-05T11:02:50.218Z,101994.19
2023-01-05T11:05:27.516Z,101986.34
2023-01-05T11:08:00.163Z,101979.59
2023-01-05T11:10:36.756Z,101975.13
2023-01-05T11:13:18.898Z,101969.50
2023-01-05T11:15:55.461Z,101971.59
2023-01-05T11:18:25.427Z,101960.09
2023-01-05T11:21:11.354Z,101961.22
2023-01-05T11:23:42.105Z,101957.97
2023-01-05T11:26:36.323Z,101956.06
2023-01-05T11:29:09.354Z,101963.22
2023-01-05T11:31:46.530Z,101957.13
2023-01-05T11:34:19.754Z,101952.75
2023-01-05T11:37:07.668Z,101959.97
2023-01-05T11:39:51.718Z,101952.75
2023-01-05T11:42:25.769Z,101940.28
2023-01-05T11:44:58.625Z,101945.22
2023-01-05T11:47:27.456Z,101943.44
2023-01-05T11:49:59.082Z,101942.13
2023-01-05T11:52:34.848Z,101945.88
2023-01-05T11:55:20.327Z,101948.16
2023-01-05T11:57:50.590Z,101937.16
2023-01-05T12:00:25.075Z,101933.44
2023-01-05T12:03:10.965Z,101930.31
2023-01-05T12:05:38.239Z,101930.66
2023-01-05T12:08:10.686Z,101931.47
2023-01-05T12:11:07.143Z,101928.19
2023-01-05T12:13:54.102Z,101925.41
2023-01-05T12:16:46.981Z,101921.47
2023-01-05T12:19:23.155Z,101918.53
2023-01-05T12:22:09.441Z,101915.13
2023-01-05T12:25:05.648Z,101920.78
2023-01-05T12:27:56.250Z,101917.06
2023-01-05T12:34:13.025Z,101918.84
2023-01-05T12:37:07.341Z,101915.38
2023-01-05T12:39:46.499Z,101923.81
2023-01-05T12:42:35.864Z,101914.09
2023-01-05T12:45:32.480Z,101914.44
2023-01-05T12:48:16.274Z,101909.22
2023-01-05T12:51:03.012Z,101919.19
2023-01-05T12:53:36.560Z,101899.88
2023-01-05T12:56:15.119Z,101900.38
2023-01-05T12:58:53.828Z,101896.50
2023-01-05T13:01:25.851Z,101898.25
2023-01-05T13:04:01.072Z,101892.31
2023-01-05T13:06:34.109Z,101893.81
2023-01-05T13:09:13.899Z,101885.94
2023-01-05T13:11:50.847Z,101882.50
2023-01-05T13:14:20.562Z,101880.41
2023-01-05T13:16:58.523Z,101879.44
2023-01-05T13:19:42.441Z,101879.09
2023-01-05T13:22:26.090Z,101874.66
2023-01-05T13:25:18.072Z,101872.72
2023-01-05T13:27:45.514Z,101861.22
2023-01-05T13:30:22.920Z,101874.34
2023-01-05T13:32:56.493Z,101868.41
2023-01-05T13:35:42.706Z,101871.50
2023-01-05T13:38:47.333Z,101870.53
2023-01-05T13:41:33.656Z,101870.72
2023-01-05T13:44:50.768Z,101865.44
2023-01-05T13:47:46.002Z,101861.69
2023-01-05T13:50:22.061Z,101862.81
2023-01-05T13:53:19.085Z,101869.22
2023-01-05T13:55:51.138Z,101860.22
2023-01-05T14:01:11.454Z,101851.53
2023-01-05T14:03:41.277Z,101854.16
2023-01-05T14:06:25.403Z,101856.16
2023-01-05T14:08:54.897Z,101866.94
2023-01-05T14:11:24.116Z,101865.81
2023-01-05T14:13:59.628Z,101864.19
2023-01-05T14:16:36.569Z,101859.53
2023-01-05T14:19:32.686Z,101866.16
2023-01-05T14:22:05.533Z,101856.09
2023-01-05T14:24:32.752Z,101867.06
2023-01-05T14:27:20.349Z,101859.28
2023-01-05T14:29:53.716Z,101862.06
2023-01-05T14:32:53.098Z,101862.13
2023-01-05T14:35:31.789Z,101858.50
2023-01-05T14:38:07.220Z,101864.03
2023-01-05T14:40:44.325Z,101867.66
2023-01-05T14:43:32.560Z,101866.03
2023-01-05T14:46:05.295Z,101868.41
2023-01-05T14:48:45.949Z,101865.09
2023-01-05T14:51:26.382Z,101865.06
2023-01-05T14:53:56.030Z,101853.94
2023-01-05T14:56:28.729Z,101856.88
2023-01-05T14:59:06.235Z,101854.03
2023-01-05T15:01:52.941Z,101854.19
2023-01-05T15:04:27.032Z,101849.28
2023-01-05T15:06:57.229Z,101847.50
2023-01-05T15:09:41.577Z,101857.25
2023-01-05T15:12:33.229Z,101847.50
2023-01-05T15:15:03.551Z,101848.47
2023-01-05T15:17:49.349Z,101852.06
2023-01-05T15:20:27.546Z,101846.00
2023-01-05T15:23:30.470Z,101849.31
2023-01-05T15:26:02.779Z,101844.34
2023-01-05T15:28:56.922Z,101856.81
2023-01-05T15:31:35.037Z,101856.00
2023-01-05T15:34:07.075Z,101853.41
2023-01-05T15:36:43.612Z,101851.88
2023-01-05T15:39:32.308Z,101849.94
2023-01-05T15:42:02.149Z,101849.88
2023-01-05T15:44:34.631Z,101848.78
2023-01-05T15:47:02.563Z,101850.38
2023-01-05T15:49:31.937Z,101853.00
2023-01-05T15:51:59.678Z,101855.50
2023-01-05T15:54:29.947Z,101862.03
2023-01-05T15:56:58.004Z,101867.94
2023-01-05T15:59:34.928Z,101857.81
2023-01-05T16:02:02.593Z,101864.56
2023-01-05T16:04:29.912Z,101858.56
2023-01-05T16:07:02.114Z,101877.59
2023-01-05T16:09:34.895Z,101865.31
2023-01-05T16:12:08.073Z,101866.41
2023-01-05T16:14:45.024Z,101862.28
2023-01-05T16:17:22.226Z,101855.91
2023-01-05T16:19:51.275Z,101849.34
2023-01-05T16:22:26.655Z,101852.69
2023-01-05T16:25:03.965Z,101855.50
2023-01-05T16:27:34.842Z,101854.66
2023-01-05T16:30:34.670Z,101852.81
2023-01-05T16:33:11.716Z,101856.63
2023-01-05T16:35:44.464Z,101854.25
2023-01-05T16:38:11.808Z,101856.50
2023-01-05T16:40:46.452Z,101848.75
2023-01-05T16:43:38.376Z,101856.97
2023-01-05T16:46:20.180Z,101852.94
2023-01-05T16:48:52.006Z,101852.59
2023-01-05T16:51:31.427Z,101848.53
2023-01-05T16:54:36.859Z,101856.59
2023-01-05T16:57:29.059Z,101849.84
2023-01-05T16:59:56.513Z,101856.53
2023-01-05T17:02:44.710Z,101852.75
2023-01-05T17:05:18.233Z,101853.34
2023-01-05T17:07:47.023Z,101850.91
2023-01-05T17:10:18.126Z,101857.59
2023-01-05T17:12:53.028Z,101845.94
2023-01-05T17:15:23.864Z,101856.94
2023-01-05T17:17:54.393Z,101852.44
2023-01-05T17:20:23.045Z,101852.34
2023-01-05T17:22:50.678Z,101844.53
2023-01-05T17:25:18.293Z,101848.84
2023-01-05T17:27:46.352Z,101849.88
2023-01-05T17:30:19.695Z,101844.34
2023-01-05T17:32:47.238Z,101846.16
2023-01-05T17:35:16.120Z,101845.94
2023-01-05T17:37:46.030Z,101839.56
2023-01-05T17:40:17.898Z,101838.50
2023-01-05T17:42:45.922Z,101832.78
2023-01-05T17:45:26.167Z,101835.72
2023-01-05T17:47:54.060Z,101835.16
2023-01-05T17:50:27.966Z,101840.72
2023-01-05T17:52:55.671Z,101835.06
2023-01-05T17:55:23.496Z,101835.44
2023-01-05T17:57:51.089Z,101834.09
2023-01-05T18:00:22.203Z,101827.13
2023-01-05T18:02:50.679Z,101828.56
2023-01-05T18:05:18.408Z,101834.31
2023-01-05T18:07:45.837Z,101827.03
2023-01-05T18:10:17.332Z,101833.44
2023-01-05T18:12:44.756Z,101832.09
2023-01-05T18:15:12.588Z,101825.59
2023-01-05T18:17:40.187Z,101824.25
2023-01-05T18:20:08.157Z,101811.34
2023-01-05T18:22:37.467Z,101809.88
2023-01-05T18:27:35.583Z,101814.41
2023-01-05T18:30:04.696Z,101810.53
2023-01-05T18:32:32.353Z,101804.16
2023-01-05T18:34:59.660Z,101810.81
2023-01-05T18:39:59.425Z,101810.78
2023-01-05T18:42:26.752Z,101801.47
2023-01-05T18:44:54.183Z,101807.91
2023-01-05T18:47:21.484Z,101812.13
2023-01-05T18:49:49.468Z,101810.03
2023-01-05T18:52:16.831Z,101808.19
2023-01-05T18:54:45.274Z,101812.25
2023-01-05T18:57:12.559Z,101801.94
2023-01-05T18:59:40.037Z,101817.47
2023-01-05T19:02:13.169Z,101817.50
2023-01-05T19:04:40.436Z,101818.97
2023-01-05T19:07:08.379Z,101805.16
2023-01-05T19:09:35.827Z,101804.56
2023-01-05T19:12:03.104Z,101822.41
2023-01-05T19:14:30.816Z,101816.03
2023-01-05T19:16:58.233Z,101814.94
2023-01-05T19:19:25.678Z,101812.81
2023-01-05T19:21:54.006Z,101818.41
2023-01-05T19:24:23.836Z,101809.69
2023-01-05T19:26:51.497Z,101814.47
2023-01-05T19:29:19.777Z,101814.47
2023-01-05T19:31:49.040Z,101818.75
2023-01-05T19:34:19.383Z,101810.53
2023-01-05T19:36:47.290Z,101808.59
2023-01-05T19:39:17.968Z,101804.28
2023-01-05T19:41:47.628Z,101805.31
2023-01-05T19:44:18.232Z,101801.84
2023-01-05T19:46:46.141Z,101802.66
2023-01-05T19:49:16.905Z,101799.84
2023-01-05T19:51:45.453Z,101802.63
2023-01-05T19:54:14.057Z,101803.16
2023-01-05T19:56:42.225Z,101803.53
2023-01-05T19:59:22.759Z,101801.81
2023-01-05T20:01:50.387Z,101801.47
2023-01-05T20:04:17.893Z,101797.47
2023-01-05T20:06:46.161Z,101799.41
2023-01-05T20:09:16.397Z,101798.75
2023-01-05T20:11:45.056Z,101800.97
2023-01-05T20:14:24.461Z,101796.63
2023-01-05T20:16:54.161Z,101796.28
2023-01-05T20:19:22.804Z,101801.69
2023-01-05T20:21:51.193Z,101793.38
2023-01-05T20:24:23.694Z,101791.59
2023-01-05T20:26:53.522Z,101791.38
2023-01-05T20:29:22.143Z,101788.31
2023-01-05T20:31:55.851Z,101793.03
2023-01-05T20:34:25.305Z,101795.94
2023-01-05T20:36:54.024Z,101785.78
2023-01-05T20:39:22.534Z,101784.78
2023-01-05T20:41:51.807Z,101787.44
2023-01-05T20:44:21.476Z,101784.50
2023-01-05T20:46:50.457Z,101779.13
2023-01-05T20:49:17.925Z,101784.69
2023-01-05T20:51:45.884Z,101784.84
2023-01-05T20:54:13.729Z,101781.03
2023-01-05T20:56:43.648Z,101781.13
2023-01-05T20:59:15.093Z,101776.34
2023-01-05T21:01:42.572Z,101778.41
2023-01-05T21:04:09.987Z,101773.38
2023-01-05T21:06:37.445Z,101768.81
2023-01-05T21:09:05.348Z,101767.06
2023-01-05T21:11:32.756Z,101771.44
2023-01-05T21:14:01.902Z,101766.06
2023-01-05T21:16:32.458Z,101764.81
2023-01-05T21:19:01.311Z,101763.22
2023-01-05T21:21:29.580Z,101763.06
2023-01-05T21:23:57.022Z,101760.81
2023-01-05T21:26:24.629Z,101759.69
2023-01-05T21:28:53.484Z,101756.38
2023-01-05T21:31:23.713Z,101764.28
2023-01-05T21:33:51.570Z,101764.13
2023-01-05T21:36:21.962Z,101750.94
2023-01-05T21:39:00.744Z,101760.03
2023-01-05T21:41:53.448Z,101749.41
2023-01-05T21:44:20.950Z,101742.50
2023-01-05T21:46:48.782Z,101743.16
2023-01-05T21:49:17.029Z,101750.03
2023-01-05T21:52:03.134Z,101741.53
2023-01-05T21:54:49.458Z,101747.50
2023-01-05T21:57:16.853Z,101743.56
2023-01-05T21:59:44.511Z,101741.31
2023-01-05T22:02:13.306Z,101741.69
2023-01-05T22:04:41.058Z,101745.44
2023-01-05T22:07:08.403Z,101740.19
2023-01-05T22:09:36.592Z,101741.50
2023-01-05T22:12:08.503Z,101733.22
2023-01-05T22:14:37.229Z,101735.47
2023-01-05T22:17:06.294Z,101741.06
2023-01-05T22:19:33.673Z,101735.53
2023-01-05T22:22:02.307Z,101740.19
2023-01-05T22:24:29.683Z,101739.53
2023-01-05T22:26:57.023Z,101734.81
2023-01-05T22:29:24.987Z,101733.66
2023-01-05T22:31:52.673Z,101732.84
2023-01-05T22:34:20.069Z,101726.28
2023-01-05T22:36:47.359Z,101720.38
2023-01-05T22:39:14.825Z,101716.94
2023-01-05T22:41:42.229Z,101725.59
2023-01-05T22:44:09.607Z,101726.78
2023-01-05T22:46:36.858Z,101716.88
2023-01-05T22:49:04.344Z,101714.81
2023-01-05T22:51:34.247Z,101722.44
2023-01-05T22:54:02.038Z,101723.16
2023-01-05T22:56:31.893Z,101712.72
2023-01-05T22:58:59.905Z,101706.16
2023-01-05T23:01:30.681Z,101713.44
2023-01-05T23:03:59.312Z,101711.97
2023-01-05T23:06:27.141Z,101714.06
2023-01-05T23:08:54.959Z,101712.31
2023-01-05T23:11:30.439Z,101717.16
2023-01-05T23:13:58.653Z,101714.81
2023-01-05T23:16:26.549Z,101713.00
2023-01-05T23:18:54.307Z,101707.84
2023-01-05T23:21:23.831Z,101705.00
2023-01-05T23:23:52.262Z,101711.16
2023-01-05T23:26:20.478Z,101706.09
2023-01-05T23:28:48.143Z,101701.97
2023-01-05T23:31:16.495Z,101709.97
2023-01-05T23:33:44.120Z,101704.22
2023-01-05T23:36:13.033Z,101700.00
2023-01-05T23:38:40.351Z,101700.50
2023-01-05T23:41:08.883Z,101696.78
2023-01-05T23:43:37.952Z,101693.66
2023-01-05T23:46:16.404Z,101688.25
2023-01-05T23:48:44.067Z,101683.56
2023-01-05T23:51:16.634Z,101684.97
2023-01-05T23:53:46.838Z,101675.06
2023-01-05T23:56:18.400Z,101674.38
2023-01-05T23:58:47.118Z,101671.09
